AAL82 KBOS-KPVD
Flight info
| Callsign | AAL82 |
|---|---|
| Flight time | N/A |
| Altitude | 10000 |
| Route | PVD |
| Aircraft | MD82/M-SDFGIRWY/S |
Departure
| Time | 2026-05-05 00:24 |
|---|---|
| Airport | Boston Logan International Airport (KBOS) |
Arrival
| Time | N/A |
|---|---|
| Airport | Rhode Island T. F. Green International Airport (KPVD) |
| Time | Latitude | Longitude | Altitude | Speed | Heading |
|---|---|---|---|---|---|
| 2026-05-04 23:55 | 42.36228 | -71.02094 | 26 ft | 0 kts | 177° |
| 2026-05-05 00:10 | 42.36248 | -71.02096 | 29 ft | 3 kts | 176° |
| 2026-05-05 00:10 | 42.36268 | -71.02098 | 30 ft | 3 kts | 176° |
| 2026-05-05 00:10 | 42.36288 | -71.02093 | 27 ft | 3 kts | 217° |
| 2026-05-05 00:10 | 42.36297 | -71.02080 | 27 ft | 0 kts | 241° |
| 2026-05-05 00:13 | 42.36296 | -71.02082 | 27 ft | 1 kts | 241° |
| 2026-05-05 00:13 | 42.36291 | -71.02095 | 30 ft | 3 kts | 245° |
| 2026-05-05 00:14 | 42.36281 | -71.02129 | 29 ft | 4 kts | 248° |
| 2026-05-05 00:14 | 42.36269 | -71.02170 | 27 ft | 5 kts | 248° |
| 2026-05-05 00:14 | 42.36256 | -71.02213 | 26 ft | 5 kts | 244° |
| 2026-05-05 00:14 | 42.36234 | -71.02249 | 26 ft | 5 kts | 216° |
| 2026-05-05 00:15 | 42.36204 | -71.02268 | 26 ft | 5 kts | 198° |
| 2026-05-05 00:15 | 42.36178 | -71.02274 | 26 ft | 0 kts | 187° |
| 2026-05-05 00:16 | 42.36170 | -71.02275 | 26 ft | 4 kts | 185° |
| 2026-05-05 00:16 | 42.36130 | -71.02263 | 27 ft | 8 kts | 149° |
| 2026-05-05 00:16 | 42.36081 | -71.02190 | 26 ft | 13 kts | 122° |
| 2026-05-05 00:17 | 42.36029 | -71.02068 | 26 ft | 15 kts | 121° |
| 2026-05-05 00:17 | 42.35974 | -71.01945 | 28 ft | 15 kts | 121° |
| 2026-05-05 00:17 | 42.35925 | -71.01818 | 28 ft | 15 kts | 111° |
| 2026-05-05 00:17 | 42.35898 | -71.01681 | 28 ft | 14 kts | 102° |
| 2026-05-05 00:18 | 42.35898 | -71.01576 | 26 ft | 11 kts | 66° |
| 2026-05-05 00:18 | 42.35965 | -71.01513 | 26 ft | 16 kts | 20° |
| 2026-05-05 00:18 | 42.36101 | -71.01445 | 26 ft | 25 kts | 20° |
| 2026-05-05 00:18 | 42.36269 | -71.01366 | 26 ft | 26 kts | 20° |
| 2026-05-05 00:19 | 42.36438 | -71.01283 | 26 ft | 26 kts | 20° |
| 2026-05-05 00:19 | 42.36582 | -71.01211 | 26 ft | 16 kts | 20° |
| 2026-05-05 00:19 | 42.36682 | -71.01162 | 26 ft | 14 kts | 19° |
| 2026-05-05 00:19 | 42.36768 | -71.01147 | 28 ft | 12 kts | 347° |
| 2026-05-05 00:20 | 42.36842 | -71.01208 | 26 ft | 13 kts | 332° |
| 2026-05-05 00:20 | 42.36921 | -71.01180 | 26 ft | 13 kts | 35° |
| 2026-05-05 00:20 | 42.36996 | -71.01109 | 27 ft | 14 kts | 33° |
| 2026-05-05 00:20 | 42.37082 | -71.01048 | 26 ft | 14 kts | 25° |
| 2026-05-05 00:21 | 42.37175 | -71.00988 | 26 ft | 15 kts | 25° |
| 2026-05-05 00:21 | 42.37272 | -71.00925 | 26 ft | 16 kts | 25° |
| 2026-05-05 00:21 | 42.37377 | -71.00871 | 26 ft | 16 kts | 19° |
| 2026-05-05 00:21 | 42.37487 | -71.00819 | 30 ft | 17 kts | 19° |
| 2026-05-05 00:22 | 42.37601 | -71.00763 | 28 ft | 18 kts | 20° |
| 2026-05-05 00:22 | 42.37714 | -71.00708 | 28 ft | 15 kts | 20° |
| 2026-05-05 00:22 | 42.37775 | -71.00678 | 30 ft | 9 kts | 20° |
| 2026-05-05 00:22 | 42.37825 | -71.00629 | 27 ft | 9 kts | 57° |
| 2026-05-05 00:23 | 42.37831 | -71.00542 | 26 ft | 10 kts | 101° |
| 2026-05-05 00:23 | 42.37785 | -71.00483 | 30 ft | 11 kts | 178° |
| 2026-05-05 00:23 | 42.37682 | -71.00522 | 26 ft | 30 kts | 198° |
| 2026-05-05 00:23 | 42.37286 | -71.00718 | 28 ft | 92 kts | 200° |
| 2026-05-05 00:24 | 42.36509 | -71.01082 | 28 ft | 145 kts | 199° |
| 2026-05-05 00:24 | 42.35484 | -71.01568 | 506 ft | 154 kts | 200° |
| 2026-05-05 00:24 | 42.34598 | -71.01931 | 1244 ft | 152 kts | 187° |
| 2026-05-05 00:24 | 42.33503 | -71.01554 | 1878 ft | 180 kts | 154° |
| 2026-05-05 00:25 | 42.32603 | -71.00209 | 2521 ft | 203 kts | 135° |
| 2026-05-05 00:25 | 42.31727 | -70.98666 | 3169 ft | 209 kts | 135° |
| 2026-05-05 00:25 | 42.30820 | -70.97100 | 3785 ft | 213 kts | 134° |
| 2026-05-05 00:25 | 42.29925 | -70.95477 | 4332 ft | 219 kts | 132° |
| 2026-05-05 00:26 | 42.29018 | -70.93788 | 4650 ft | 223 kts | 131° |
| 2026-05-05 00:26 | 42.28127 | -70.92097 | 4878 ft | 220 kts | 131° |
| 2026-05-05 00:26 | 42.27240 | -70.90403 | 5016 ft | 222 kts | 130° |
| 2026-05-05 00:26 | 42.26346 | -70.88701 | 5002 ft | 220 kts | 132° |
| 2026-05-05 00:27 | 42.25261 | -70.87369 | 4980 ft | 205 kts | 166° |
| 2026-05-05 00:27 | 42.23871 | -70.87235 | 5042 ft | 209 kts | 206° |
| 2026-05-05 00:27 | 42.22626 | -70.88325 | 5269 ft | 222 kts | 226° |
| 2026-05-05 00:27 | 42.21451 | -70.89753 | 5527 ft | 244 kts | 226° |
| 2026-05-05 00:28 | 42.20084 | -70.91413 | 5204 ft | 283 kts | 225° |
| 2026-05-05 00:28 | 42.18627 | -70.93192 | 4863 ft | 276 kts | 225° |
| 2026-05-05 00:28 | 42.17219 | -70.94901 | 4354 ft | 269 kts | 224° |
| 2026-05-05 00:28 | 42.15776 | -70.96494 | 3932 ft | 260 kts | 220° |
| 2026-05-05 00:29 | 42.14378 | -70.97892 | 3932 ft | 239 kts | 220° |
| 2026-05-05 00:29 | 42.13123 | -70.99221 | 3881 ft | 222 kts | 223° |
| 2026-05-05 00:29 | 42.11912 | -71.00463 | 3741 ft | 216 kts | 219° |